Time;durP1;ratioP1;P1;durP2;ratioP2;P2;SDS_P1;SDS_P2;PMS_P1;PMS_P2;Temp;Humidity;BMP_temperature;BMP_pressure;BME280_temperature;BME280_humidity;BME280_pressure;Samples;Min_cycle;Max_cycle;Signal;HPM_P1;HPM_P2
2023/01/07 00:00:01;;;;;;;2.75;1.60;;;;;;;10.61;69.07;101157.84;4199296;28;20076;-67
2023/01/07 00:02:13;;;;;;;3.88;2.03;;;;;;;10.55;69.14;101161.16;4199328;28;20040;-67
2023/01/07 00:04:16;;;;;;;3.45;1.88;;;;;;;10.57;69.20;101154.28;4197098;28;20040;-69
2023/01/07 00:06:21;;;;;;;3.15;1.77;;;;;;;10.63;69.36;101148.34;4199261;28;20060;-67
2023/01/07 00:08:24;;;;;;;3.17;1.90;;;;;;;10.53;68.91;101146.34;4198259;28;20048;-69
2023/01/07 00:10:26;;;;;;;2.83;2.03;;;;;;;10.50;69.14;101146.28;4199157;28;20051;-68
2023/01/07 00:12:29;;;;;;;2.75;1.80;;;;;;;10.51;69.15;101137.66;4197890;28;20445;-68
2023/01/07 00:14:32;;;;;;;2.85;1.85;;;;;;;10.48;69.19;101141.94;4197047;28;20037;-68
2023/01/07 00:16:37;;;;;;;4.20;2.20;;;;;;;10.46;69.85;101140.13;4199067;28;20371;-68
2023/01/07 00:18:40;;;;;;;;;;;;;;;10.41;69.74;101142.63;4199472;28;20045;-68
2023/01/07 00:20:42;;;;;;;2.78;2.05;;;;;;;10.45;69.84;101134.06;4198994;28;19920;-68
2023/01/07 00:22:45;;;;;;;2.88;2.05;;;;;;;10.47;68.85;101131.50;4197698;28;20052;-68
2023/01/07 00:24:48;;;;;;;5.30;1.88;;;;;;;10.51;68.78;101132.44;4198161;28;20040;-68
2023/01/07 00:26:51;;;;;;;5.03;2.70;;;;;;;10.54;68.80;101132.53;4198818;28;20040;-68
2023/01/07 00:28:54;;;;;;;3.45;2.22;;;;;;;10.53;68.59;101133.34;4198851;28;20059;-68
2023/01/07 00:30:59;;;;;;;2.60;1.77;;;;;;;10.57;68.34;101132.59;4180928;28;20102;-68
2023/01/07 00:33:06;;;;;;;5.28;1.88;;;;;;;10.60;68.39;101130.06;4197583;28;20051;-68
2023/01/07 00:35:21;;;;;;;4.38;2.17;;;;;;;10.56;68.27;101125.66;4197047;28;20541;-68
2023/01/07 00:39:45;;;;;;;3.40;2.08;;;;;;;10.58;68.80;101126.56;4197529;28;20047;-68
2023/01/07 00:44:06;;;;;;;3.28;1.95;;;;;;;10.65;68.15;101120.66;4195753;28;20045;-68
2023/01/07 00:46:11;;;;;;;3.30;1.92;;;;;;;10.57;67.89;101124.78;4180622;28;20037;-69
2023/01/07 00:48:17;;;;;;;2.85;1.77;;;;;;;10.56;69.00;101115.25;4213986;28;20401;-68
2023/01/07 00:50:20;;;;;;;4.75;2.00;;;;;;;10.55;68.73;101110.88;4197393;28;20044;-69
2023/01/07 00:52:23;;;;;;;5.75;2.17;;;;;;;10.57;68.92;101117.00;4197529;28;20067;-69
2023/01/07 00:54:26;;;;;;;3.38;1.90;;;;;;;10.57;68.43;101117.00;4196355;28;20044;-68
2023/01/07 00:56:32;;;;;;;2.60;1.60;;;;;;;10.58;68.94;101123.97;4197000;28;20044;-68
2023/01/07 00:58:35;;;;;;;3.72;1.80;;;;;;;10.55;68.43;101116.09;4197129;28;20040;-68
2023/01/07 01:00:37;;;;;;;3.03;1.60;;;;;;;10.57;69.07;101115.28;4197141;28;20098;-68
2023/01/07 01:02:40;;;;;;;3.47;1.73;;;;;;;10.60;68.70;101109.25;4180428;28;20509;-68
2023/01/07 01:04:45;;;;;;;3.47;1.80;;;;;;;10.58;68.67;101116.16;4196241;28;20037;-69
2023/01/07 01:06:47;;;;;;;3.22;1.95;;;;;;;10.58;68.59;101105.75;4196738;28;20040;-68
2023/01/07 01:08:50;;;;;;;2.78;2.00;;;;;;;10.57;68.80;101107.50;4198190;28;20414;-68
2023/01/07 01:10:53;;;;;;;3.35;2.30;;;;;;;10.57;68.74;101102.28;4196883;28;20036;-68
2023/01/07 01:12:56;;;;;;;3.55;1.70;;;;;;;10.54;68.96;101102.22;4196893;28;20044;-70
2023/01/07 01:14:59;;;;;;;2.70;1.77;;;;;;;10.55;69.53;101097.88;4196152;28;20139;-68
2023/01/07 01:17:02;;;;;;;3.60;2.05;;;;;;;10.57;68.92;101097.09;4196799;28;20413;-69
2023/01/07 01:19:05;;;;;;;3.03;1.77;;;;;;;10.56;69.31;101097.91;4196855;28;20135;-68
2023/01/07 01:21:14;;;;;;;2.53;1.85;;;;;;;10.58;69.28;101105.75;4196803;28;20041;-68
2023/01/07 01:23:17;;;;;;;2.92;1.90;;;;;;;10.59;69.23;101099.72;4197595;28;20044;-68
2023/01/07 01:25:20;;;;;;;3.65;2.17;;;;;;;10.55;69.12;101103.09;4196677;28;20071;-68
2023/01/07 01:27:24;;;;;;;3.75;1.90;;;;;;;10.52;69.50;101106.47;4196525;28;20028;-69
2023/01/07 01:29:27;;;;;;;3.13;2.10;;;;;;;10.55;69.91;101097.88;4196743;28;20044;-68
2023/01/07 01:31:30;;;;;;;2.50;1.92;;;;;;;10.56;69.16;101110.06;4196609;28;20048;-68
2023/01/07 01:33:33;;;;;;;2.25;1.83;;;;;;;10.54;69.58;101099.63;4196021;28;20130;-68
2023/01/07 01:35:40;;;;;;;3.40;2.20;;;;;;;10.54;69.77;101096.13;4196508;28;20040;-68
2023/01/07 01:37:44;;;;;;;3.33;1.95;;;;;;;10.52;69.06;101103.00;4196539;28;20040;-68
2023/01/07 01:39:48;;;;;;;4.45;2.20;;;;;;;10.50;69.20;101102.97;4196455;28;20055;-68
2023/01/07 01:41:51;;;;;;;3.25;2.17;;;;;;;10.51;69.37;101096.06;4180125;28;20049;-68
2023/01/07 01:43:54;;;;;;;2.42;1.58;;;;;;;10.53;69.57;101099.56;4210739;28;20115;-68
2023/01/07 01:45:59;;;;;;;2.92;2.05;;;;;;;10.50;69.74;101097.78;4196236;28;20037;-68
2023/01/07 01:48:05;;;;;;;3.63;2.20;;;;;;;10.50;69.98;101095.19;4196462;28;20045;-68
2023/01/07 01:50:16;;;;;;;3.35;1.92;;;;;;;10.52;70.40;101093.47;4196469;28;20181;-68
2023/01/07 01:52:23;;;;;;;2.47;1.85;;;;;;;10.55;69.16;101088.34;4196488;28;20041;-68
2023/01/07 01:54:29;;;;;;;4.32;2.00;;;;;;;10.56;69.26;101084.94;4195742;28;20051;-68
2023/01/07 01:56:36;;;;;;;3.30;2.20;;;;;;;10.53;69.75;101081.34;4196286;28;20059;-68
2023/01/07 01:58:43;;;;;;;5.30;2.17;;;;;;;10.54;69.10;101073.63;4196266;28;20032;-69
2023/01/07 02:00:46;;;;;;;3.33;2.33;;;;;;;10.54;70.07;101076.22;4196248;28;20047;-68
2023/01/07 02:02:53;;;;;;;3.67;2.17;;;;;;;10.55;69.90;101075.34;4196369;28;20086;-68
2023/01/07 02:04:57;;;;;;;3.10;2.13;;;;;;;10.57;69.39;101075.38;4196964;28;20451;-69
2023/01/07 02:07:03;;;;;;;6.35;2.25;;;;;;;10.52;70.01;101077.03;4197370;28;20445;-68
2023/01/07 02:09:07;;;;;;;4.30;1.95;;;;;;;10.51;69.23;101070.91;4196224;28;20466;-68
2023/01/07 02:11:24;;;;;;;3.50;2.17;;;;;;;10.53;69.43;101068.34;4196023;28;20032;-69
2023/01/07 02:13:39;;;;;;;4.85;2.20;;;;;;;10.54;69.36;101067.53;4178878;28;20044;-68
2023/01/07 02:16:00;;;;;;;3.47;1.95;;;;;;;10.51;69.72;101070.06;4196143;28;20382;-68
2023/01/07 02:18:16;;;;;;;3.33;1.92;;;;;;;10.47;69.36;101069.97;4196113;28;20631;-69
2023/01/07 02:20:51;;;;;;;4.35;2.08;;;;;;;10.54;69.05;101059.72;4195981;28;20106;-69
2023/01/07 02:23:24;;;;;;;4.05;2.28;;;;;;;10.53;69.78;101065.75;4197232;28;20045;-68
2023/01/07 02:25:51;;;;;;;3.85;1.88;;;;;;;10.52;69.11;101058.81;4189835;28;20052;-68
2023/01/07 02:28:15;;;;;;;2.60;2.00;;;;;;;10.51;69.73;101060.53;4195986;28;20040;-69
2023/01/07 02:30:44;;;;;;;3.65;2.30;;;;;;;10.47;69.72;101056.13;4197206;28;20393;-69
2023/01/07 02:33:14;;;;;;;3.45;2.15;;;;;;;10.47;69.49;101053.50;4196145;28;20049;-69
2023/01/07 02:35:32;;;;;;;3.47;2.40;;;;;;;10.43;69.58;101047.34;4168228;28;20132;-69
2023/01/07 02:37:43;;;;;;;3.95;2.13;;;;;;;10.44;69.97;101040.41;4195938;28;20033;-69
2023/01/07 02:39:58;;;;;;;3.92;2.40;;;;;;;10.48;70.14;101040.56;4195896;28;20071;-68
2023/01/07 02:42:07;;;;;;;5.80;2.13;;;;;;;10.46;69.72;101039.63;4196040;28;20040;-68
2023/01/07 02:44:16;;;;;;;4.85;2.00;;;;;;;10.50;70.10;101031.88;4196230;28;20048;-68
2023/01/07 02:46:25;;;;;;;3.72;2.05;;;;;;;10.50;69.65;101034.50;4195912;28;20099;-68
2023/01/07 02:48:31;;;;;;;3.97;1.98;;;;;;;10.46;70.20;101036.16;4197187;28;20045;-68
2023/01/07 02:50:34;;;;;;;3.53;1.70;;;;;;;10.50;69.44;101029.28;4195799;28;20093;-68
2023/01/07 02:52:37;;;;;;;3.38;1.80;;;;;;;10.46;69.44;101029.22;4196949;28;20409;-68
2023/01/07 02:54:43;;;;;;;4.28;2.25;;;;;;;10.47;69.24;101025.78;4194940;28;20140;-68
2023/01/07 02:57:02;;;;;;;3.47;2.00;;;;;;;10.47;69.17;101024.94;4195779;28;20036;-68
2023/01/07 02:59:25;;;;;;;2.25;1.75;;;;;;;10.43;70.14;101030.88;4195919;28;20036;-68
2023/01/07 03:02:08;;;;;;;3.17;2.00;;;;;;;10.50;69.72;101018.91;4195758;28;20417;-68
2023/01/07 03:04:32;;;;;;;2.88;1.60;;;;;;;10.52;69.38;101019.81;4194899;28;20131;-68
2023/01/07 03:06:51;;;;;;;5.03;2.35;;;;;;;10.54;68.88;101012.94;4195419;28;20043;-69
2023/01/07 03:09:04;;;;;;;3.78;1.92;;;;;;;10.47;69.65;101009.31;4195693;28;20036;-68
2023/01/07 03:11:10;;;;;;;4.82;2.22;;;;;;;10.51;69.79;101013.72;4195776;28;20051;-68
2023/01/07 03:13:19;;;;;;;3.63;1.88;;;;;;;10.50;69.39;101013.69;4195295;28;20095;-68
2023/01/07 03:15:27;;;;;;;3.72;2.10;;;;;;;10.49;69.95;101005.03;4195518;28;20048;-68
2023/01/07 03:17:37;;;;;;;2.13;1.80;;;;;;;10.48;69.29;101006.75;4195839;28;20082;-68
2023/01/07 03:19:46;;;;;;;4.20;2.13;;;;;;;10.51;69.12;101010.25;4196839;28;20049;-69
2023/01/07 03:21:52;;;;;;;2.90;1.85;;;;;;;10.50;70.01;101008.50;4178943;28;20045;-68
2023/01/07 03:23:56;;;;;;;;;;;;;;;10.44;70.11;101004.03;4195261;28;20410;-68
2023/01/07 03:26:02;;;;;;;4.80;2.53;;;;;;;10.44;69.56;101001.44;4195858;28;19920;-68
2023/01/07 03:28:07;;;;;;;4.07;2.15;;;;;;;10.41;70.04;101012.66;4196659;28;20128;-68
2023/01/07 03:30:15;;;;;;;4.30;2.38;;;;;;;10.50;69.74;101000.69;4196497;28;20041;-69
2023/01/07 03:32:23;;;;;;;4.85;2.03;;;;;;;10.42;70.33;100996.19;4198933;28;20048;-68
2023/01/07 03:34:28;;;;;;;3.10;1.83;;;;;;;10.45;69.54;100998.91;4197873;28;20075;-68
2023/01/07 03:36:39;;;;;;;5.03;2.65;;;;;;;10.44;70.25;100991.94;4198395;28;20142;-68
2023/01/07 03:38:44;;;;;;;4.72;2.60;;;;;;;10.46;69.51;100997.16;4198518;28;20044;-68
2023/01/07 03:40:48;;;;;;;3.38;2.10;;;;;;;10.43;69.45;100995.38;4198524;28;20586;-68
2023/01/07 03:42:50;;;;;;;4.55;2.42;;;;;;;10.47;69.18;100997.19;4198361;28;20076;-68
2023/01/07 03:44:59;;;;;;;6.80;2.10;;;;;;;10.47;69.44;100989.41;4196100;28;20044;-68
2023/01/07 03:47:05;;;;;;;5.00;2.13;;;;;;;10.48;69.41;100993.75;4198262;28;20044;-68
2023/01/07 03:49:08;;;;;;;3.20;1.77;;;;;;;10.45;70.03;100992.78;4198254;28;20043;-68
2023/01/07 03:51:12;;;;;;;4.72;2.30;;;;;;;10.45;69.90;100993.69;4181646;28;20052;-68
2023/01/07 03:53:16;;;;;;;2.75;1.80;;;;;;;10.44;69.70;100986.72;4197605;28;20094;-67
2023/01/07 03:55:23;;;;;;;4.72;2.60;;;;;;;10.47;69.42;100988.53;4198194;28;20456;-68
2023/01/07 03:57:29;;;;;;;3.70;2.33;;;;;;;10.44;69.44;100976.34;4198145;28;20040;-68
2023/01/07 03:59:35;;;;;;;4.63;2.10;;;;;;;10.47;69.60;100981.59;4198182;28;20036;-68
2023/01/07 04:01:40;;;;;;;5.07;2.42;;;;;;;10.45;69.61;100975.50;4198179;28;20041;-68
2023/01/07 04:03:44;;;;;;;;;;;;;;;10.45;69.75;100977.19;4197771;28;20044;-68
2023/01/07 04:05:47;;;;;;;3.45;1.98;;;;;;;10.44;69.43;100975.44;4198086;28;19966;-68
2023/01/07 04:07:50;;;;;;;3.22;2.33;;;;;;;10.48;70.53;100975.56;4197961;28;20045;-69
2023/01/07 04:09:54;;;;;;;3.20;2.17;;;;;;;10.48;70.38;100972.97;4198080;28;20098;-68
2023/01/07 04:11:57;;;;;;;4.68;2.42;;;;;;;10.46;70.51;100969.44;4197840;28;20047;-68
2023/01/07 04:14:00;;;;;;;4.78;2.38;;;;;;;10.46;70.57;100969.44;4197119;28;20120;-68
2023/01/07 04:16:05;;;;;;;3.80;2.33;;;;;;;10.48;70.41;100962.56;4197951;28;20078;-68
2023/01/07 04:18:08;;;;;;;3.47;2.28;;;;;;;10.45;70.15;100959.91;4197793;28;20422;-68
2023/01/07 04:20:11;;;;;;;5.35;2.83;;;;;;;10.41;70.35;100958.06;4199122;28;20051;-68
2023/01/07 04:22:14;;;;;;;4.63;2.25;;;;;;;10.48;69.70;100954.78;4198981;28;20040;-68
2023/01/07 04:24:17;;;;;;;3.65;2.63;;;;;;;10.46;70.31;100952.97;4197103;28;20102;-68
2023/01/07 04:26:22;;;;;;;3.47;2.30;;;;;;;10.44;70.33;100949.44;4197870;28;20048;-68
2023/01/07 04:28:25;;;;;;;5.00;2.75;;;;;;;10.43;70.69;100951.19;4197645;28;20059;-68
2023/01/07 04:30:28;;;;;;;4.28;2.63;;;;;;;10.39;70.76;100940.69;4198877;28;20059;-68
2023/01/07 04:32:31;;;;;;;5.82;2.53;;;;;;;10.40;70.98;100945.91;4197485;28;20157;-68
2023/01/07 04:34:34;;;;;;;5.43;2.40;;;;;;;10.42;70.11;100941.59;4196808;28;20098;-67
2023/01/07 04:36:38;;;;;;;4.07;2.17;;;;;;;10.45;70.42;100938.22;4197880;28;20044;-68
2023/01/07 04:38:41;;;;;;;3.30;2.08;;;;;;;10.45;70.39;100935.59;4197683;28;20037;-68
2023/01/07 04:40:44;;;;;;;5.00;2.65;;;;;;;10.52;70.44;100937.50;4197600;28;20079;-68
2023/01/07 04:42:49;;;;;;;4.60;2.55;;;;;;;10.52;70.46;100932.31;4196994;28;20127;-67
2023/01/07 04:44:52;;;;;;;4.32;2.25;;;;;;;10.47;70.32;100929.63;4196714;28;20522;-68
2023/01/07 04:46:55;;;;;;;5.03;2.10;;;;;;;10.50;69.92;100933.09;4197607;28;20067;-68
2023/01/07 04:48:58;;;;;;;3.75;2.60;;;;;;;10.48;70.03;100933.97;4197595;28;20032;-68
2023/01/07 04:51:01;;;;;;;3.40;2.28;;;;;;;10.47;69.80;100928.75;4197382;28;20383;-68
2023/01/07 04:53:05;;;;;;;7.80;2.80;;;;;;;10.42;70.80;100920.81;4197362;28;20062;-68
2023/01/07 04:55:09;;;;;;;4.35;2.55;;;;;;;10.42;70.91;100925.16;4196561;28;20040;-68
2023/01/07 04:57:12;;;;;;;4.35;2.50;;;;;;;10.45;70.51;100920.91;4197179;28;20040;-68
2023/01/07 04:59:17;;;;;;;3.92;2.50;;;;;;;10.32;70.80;100916.22;4180665;28;20071;-68
2023/01/07 05:01:20;;;;;;;3.60;2.38;;;;;;;10.32;70.60;100916.22;4197183;28;20413;-68
2023/01/07 05:03:24;;;;;;;7.00;2.40;;;;;;;10.37;70.94;100916.38;4196419;28;20068;-68
2023/01/07 05:05:27;;;;;;;3.38;2.13;;;;;;;10.35;70.80;100918.94;4197163;28;20055;-68
2023/01/07 05:07:30;;;;;;;5.43;2.33;;;;;;;10.34;71.06;100916.28;4197096;28;20459;-68
2023/01/07 05:09:34;;;;;;;3.72;2.45;;;;;;;10.31;70.58;100919.69;4197110;28;20083;-68
2023/01/07 05:11:37;;;;;;;3.15;2.28;;;;;;;10.33;71.32;100918.00;4196896;28;20044;-68
2023/01/07 05:13:41;;;;;;;3.08;2.17;;;;;;;10.34;70.63;100912.00;4196124;28;20040;-68
2023/01/07 05:15:45;;;;;;;3.28;2.05;;;;;;;10.38;70.79;100910.31;4197150;28;20055;-68
2023/01/07 05:17:48;;;;;;;;;;;;;;;10.31;70.92;100907.56;4197341;28;20087;-68
2023/01/07 05:19:51;;;;;;;3.17;1.88;;;;;;;10.29;71.35;100908.38;4196895;28;19924;-68
2023/01/07 05:21:54;;;;;;;3.22;2.13;;;;;;;10.36;71.24;100902.50;4196837;28;20513;-68
2023/01/07 05:23:57;;;;;;;5.10;2.35;;;;;;;10.38;71.07;100898.22;4196110;28;20044;-68
2023/01/07 05:26:00;;;;;;;3.72;2.60;;;;;;;10.37;70.68;100903.41;4196765;28;20047;-68
2023/01/07 05:28:05;;;;;;;3.25;2.17;;;;;;;10.36;70.86;100892.09;4197017;28;20044;-68
2023/01/07 05:30:11;;;;;;;4.68;2.88;;;;;;;10.34;71.02;100891.19;4196760;28;20050;-68
2023/01/07 05:32:16;;;;;;;3.58;2.35;;;;;;;10.38;71.19;100897.31;4196724;28;20126;-68
2023/01/07 05:34:19;;;;;;;3.53;2.40;;;;;;;10.34;70.75;100887.69;4197063;28;20087;-68
2023/01/07 05:36:21;;;;;;;3.83;2.35;;;;;;;10.36;71.39;100886.91;4196631;28;20566;-68
2023/01/07 05:38:24;;;;;;;3.72;2.10;;;;;;;10.39;70.47;100880.91;4196707;28;20064;-68
2023/01/07 05:40:27;;;;;;;4.93;2.40;;;;;;;10.39;71.38;100881.75;4196474;28;20110;-68
2023/01/07 05:42:30;;;;;;;2.78;2.05;;;;;;;10.39;71.08;100879.16;4196515;28;20044;-68
2023/01/07 05:44:34;;;;;;;3.13;2.22;;;;;;;10.37;70.58;100878.28;4194632;28;20037;-68
2023/01/07 05:46:37;;;;;;;3.92;2.60;;;;;;;10.35;71.06;100876.47;4196238;28;20094;-69
2023/01/07 05:48:41;;;;;;;6.05;2.30;;;;;;;10.34;71.50;100873.00;4197517;28;20410;-68
2023/01/07 05:50:44;;;;;;;4.45;2.53;;;;;;;10.37;71.12;100870.47;4196324;28;20044;-68
2023/01/07 05:52:47;;;;;;;6.07;2.42;;;;;;;10.40;70.66;100865.34;4197405;28;20044;-68
2023/01/07 05:54:49;;;;;;;5.47;2.30;;;;;;;10.40;70.50;100862.75;4196290;28;20040;-68
2023/01/07 05:56:52;;;;;;;2.90;2.00;;;;;;;10.33;70.71;100867.75;4197518;28;20516;-68
2023/01/07 05:58:55;;;;;;;3.85;2.22;;;;;;;10.30;70.62;100868.56;4197498;28;20036;-68
2023/01/07 06:00:58;;;;;;;3.97;2.20;;;;;;;10.26;70.86;100866.72;4197477;28;20032;-68
2023/01/07 06:03:01;;;;;;;4.22;2.28;;;;;;;10.29;71.12;100866.78;4196149;28;20044;-67
2023/01/07 06:05:06;;;;;;;2.80;1.85;;;;;;;10.28;71.10;100860.72;4196075;28;20044;-68
2023/01/07 06:07:09;;;;;;;4.25;2.15;;;;;;;10.25;71.55;100868.44;4197347;28;20043;-67
2023/01/07 06:09:12;;;;;;;3.65;2.28;;;;;;;10.25;71.13;100865.84;4197216;28;20094;-67
2023/01/07 06:11:15;;;;;;;3.70;2.10;;;;;;;10.27;71.03;100865.88;4197227;28;20106;-67
2023/01/07 06:13:18;;;;;;;3.15;2.10;;;;;;;10.28;71.49;100859.84;4195122;28;20310;-68
2023/01/07 06:15:20;;;;;;;3.58;1.83;;;;;;;10.32;70.91;100861.66;4197209;28;20086;-67
2023/01/07 06:17:23;;;;;;;2.28;1.50;;;;;;;10.32;70.64;100864.25;4195763;28;20052;-68
2023/01/07 06:19:26;;;;;;;4.03;2.00;;;;;;;10.34;70.55;100860.00;4194850;28;20036;-68
2023/01/07 06:21:30;;;;;;;4.80;2.53;;;;;;;10.35;70.97;100861.75;4196857;28;20086;-68
2023/01/07 06:23:33;;;;;;;4.63;2.22;;;;;;;10.33;71.32;100853.03;4194296;28;20040;-70
2023/01/07 06:25:36;;;;;;;5.43;2.80;;;;;;;10.35;70.89;100845.28;4194381;28;20041;-67
2023/01/07 06:27:40;;;;;;;3.55;1.60;;;;;;;10.31;71.16;100849.53;4198222;28;20047;-68
2023/01/07 06:29:43;;;;;;;3.30;1.80;;;;;;;10.30;71.32;100842.56;4198387;28;20371;-67
2023/01/07 06:31:46;;;;;;;2.67;1.70;;;;;;;10.29;71.26;100848.59;4196042;28;20040;-67
2023/01/07 06:33:49;;;;;;;2.45;1.50;;;;;;;10.28;70.54;100849.47;4195189;28;20040;-67
2023/01/07 06:35:51;;;;;;;3.33;1.65;;;;;;;10.26;71.35;100844.19;4212760;28;20044;-68
2023/01/07 06:37:56;;;;;;;3.45;1.40;;;;;;;10.27;70.61;100839.91;4197105;28;20452;-67
2023/01/07 06:39:58;;;;;;;3.60;2.13;;;;;;;10.22;71.35;100829.41;4195649;28;20032;-68
2023/01/07 06:42:01;;;;;;;5.38;2.08;;;;;;;10.25;71.07;100831.19;4197042;28;20101;-68
2023/01/07 06:44:04;;;;;;;2.70;1.70;;;;;;;10.26;71.28;100830.34;4196282;28;20414;-68
2023/01/07 06:46:07;;;;;;;2.13;1.48;;;;;;;10.25;71.08;100825.97;4189608;28;20048;-68
2023/01/07 06:48:10;;;;;;;4.45;1.77;;;;;;;10.27;70.79;100827.78;4196713;28;20415;-68
2023/01/07 06:50:13;;;;;;;2.17;1.40;;;;;;;10.21;71.25;100822.47;4192890;28;20045;-68
2023/01/07 06:52:15;;;;;;;1.95;1.70;;;;;;;10.23;70.94;100825.09;4195722;28;20098;-68
2023/01/07 06:54:20;;;;;;;2.40;1.67;;;;;;;10.20;70.55;100825.03;4195853;28;20036;-68
2023/01/07 06:56:22;;;;;;;2.40;1.50;;;;;;;10.19;70.48;100820.66;4197550;28;20059;-68
2023/01/07 06:58:25;;;;;;;1.65;1.13;;;;;;;10.18;71.14;100817.19;4196753;28;20040;-68
2023/01/07 07:00:28;;;;;;;1.73;1.40;;;;;;;10.17;70.56;100812.84;4196601;28;20039;-68
2023/01/07 07:02:31;;;;;;;3.08;1.55;;;;;;;10.17;70.66;100815.44;4197036;28;20051;-67
2023/01/07 07:04:34;;;;;;;3.67;1.33;;;;;;;10.19;71.00;100807.66;4178310;28;20056;-68
2023/01/07 07:06:37;;;;;;;5.03;1.30;;;;;;;10.22;70.94;100805.13;4200187;28;20398;-68
2023/01/07 07:08:40;;;;;;;3.88;1.50;;;;;;;10.18;70.68;100798.13;4200133;28;20118;-67
2023/01/07 07:10:44;;;;;;;1.80;1.30;;;;;;;10.19;70.92;100808.56;4199900;28;20094;-67
2023/01/07 07:12:47;;;;;;;1.48;1.20;;;;;;;10.18;70.40;100808.50;4200144;28;20044;-68
2023/01/07 07:14:50;;;;;;;3.42;1.63;;;;;;;10.16;70.51;100808.47;4199475;28;20040;-68
2023/01/07 07:16:53;;;;;;;3.33;1.60;;;;;;;10.14;70.96;100805.84;4200179;28;20502;-68
2023/01/07 07:18:55;;;;;;;2.22;1.30;;;;;;;10.17;71.22;100811.97;4200037;28;20044;-67
2023/01/07 07:20:58;;;;;;;2.05;1.30;;;;;;;10.15;70.59;100796.34;4200032;28;20128;-67
2023/01/07 07:23:01;;;;;;;2.45;1.45;;;;;;;10.18;70.34;100800.72;4199811;28;20131;-68
2023/01/07 07:25:05;;;;;;;1.75;1.40;;;;;;;10.20;70.24;100797.31;4199105;28;20131;-68
2023/01/07 07:27:09;;;;;;;1.77;1.58;;;;;;;10.21;70.64;100800.81;4200008;28;20071;-67
2023/01/07 07:29:12;;;;;;;2.03;1.33;;;;;;;10.21;70.94;100795.59;4199826;28;20044;-68
2023/01/07 07:31:15;;;;;;;2.35;1.35;;;;;;;10.21;70.65;100791.28;4199261;28;20066;-68
2023/01/07 07:33:18;;;;;;;3.05;1.30;;;;;;;10.21;70.68;100793.88;4198808;28;20040;-68
2023/01/07 07:35:21;;;;;;;2.92;1.50;;;;;;;10.22;70.64;100792.13;4199625;28;20106;-68
2023/01/07 07:37:24;;;;;;;2.03;1.33;;;;;;;10.22;70.44;100793.03;4199603;28;20058;-67
2023/01/07 07:39:27;;;;;;;2.47;1.02;;;;;;;10.23;70.69;100786.09;4199719;28;20494;-64
2023/01/07 07:41:30;;;;;;;1.42;1.10;;;;;;;10.24;69.95;100790.47;4199575;28;20048;-66
2023/01/07 07:43:36;;;;;;;;;;;;;;;10.18;70.76;100788.63;4198070;28;20448;-66
2023/01/07 07:45:39;;;;;;;4.72;1.38;;;;;;;10.22;70.35;100773.94;4199601;28;19924;-72
2023/01/07 07:47:42;;;;;;;2.60;1.40;;;;;;;10.26;69.95;100779.25;4199549;28;20048;-65
2023/01/07 07:49:44;;;;;;;2.10;1.38;;;;;;;10.28;69.74;100777.56;4199388;28;20097;-72
2023/01/07 07:51:47;;;;;;;2.05;1.40;;;;;;;10.29;69.88;100774.13;4199337;28;20418;-72
2023/01/07 07:53:50;;;;;;;1.25;1.10;;;;;;;10.31;70.01;100771.56;4197011;28;20079;-73
2023/01/07 07:55:53;;;;;;;2.78;1.42;;;;;;;10.30;69.78;100772.41;4199472;28;20048;-72
2023/01/07 07:57:57;;;;;;;1.40;1.10;;;;;;;10.24;69.04;100770.56;4199370;28;20044;-72
2023/01/07 08:00:01;;;;;;;1.08;0.82;;;;;;;10.23;69.92;100768.78;4199269;28;20498;-72
2023/01/07 08:02:14;;;;;;;1.98;0.98;;;;;;;10.25;69.57;100769.72;4199143;28;20041;-72
2023/01/07 08:04:17;;;;;;;1.48;1.20;;;;;;;10.26;69.55;100763.66;4198401;28;20047;-71
2023/01/07 08:06:20;;;;;;;1.17;0.98;;;;;;;10.31;68.87;100769.84;4198949;28;20506;-72
2023/01/07 08:08:22;;;;;;;1.50;1.10;;;;;;;10.31;68.70;100758.56;4199170;28;20402;-72
2023/01/07 08:10:27;;;;;;;0.90;0.80;;;;;;;10.31;68.67;100758.56;4197701;28;20048;-72
2023/01/07 08:12:30;;;;;;;0.80;0.80;;;;;;;10.30;68.22;100757.69;4197906;28;20036;-73
2023/01/07 08:14:33;;;;;;;1.77;0.85;;;;;;;10.26;68.48;100760.19;4195337;28;20044;-72
2023/01/07 08:16:38;;;;;;;0.70;0.70;;;;;;;10.27;68.98;100759.34;4203338;28;20052;-72
2023/01/07 08:18:42;;;;;;;1.48;0.90;;;;;;;10.22;68.46;100755.75;4195161;28;20065;-72
2023/01/07 08:20:45;;;;;;;2.28;1.25;;;;;;;10.26;67.92;100757.59;4196795;28;20044;-72
2023/01/07 08:22:48;;;;;;;1.75;1.00;;;;;;;10.25;68.16;100756.72;4196838;28;20036;-72
2023/01/07 08:24:50;;;;;;;2.40;1.20;;;;;;;10.29;68.40;100752.44;4196211;28;20518;-72
2023/01/07 08:26:54;;;;;;;1.73;1.13;;;;;;;10.35;67.45;100749.13;4195133;28;20044;-72
2023/01/07 08:28:57;;;;;;;1.58;1.10;;;;;;;10.33;68.03;100748.22;4196769;28;20094;-72
2023/01/07 08:31:01;;;;;;;3.55;1.13;;;;;;;10.32;67.92;100744.72;4195265;28;20453;-72
2023/01/07 08:33:07;;;;;;;2.28;1.35;;;;;;;10.36;68.72;100743.09;4196188;28;20531;-72
2023/01/07 08:35:10;;;;;;;2.95;1.10;;;;;;;10.32;68.50;100744.72;4194948;28;20317;-72
2023/01/07 08:37:13;;;;;;;2.13;1.10;;;;;;;10.34;68.16;100745.66;4195630;28;20048;-73
2023/01/07 08:39:16;;;;;;;1.40;1.10;;;;;;;10.36;68.21;100743.97;4196588;28;20094;-72
2023/01/07 08:41:19;;;;;;;1.48;0.90;;;;;;;10.45;68.25;100748.47;4196590;28;20162;-72
2023/01/07 08:43:23;;;;;;;4.32;1.17;;;;;;;10.42;68.17;100746.66;4186412;28;20048;-73
2023/01/07 08:45:27;;;;;;;2.22;1.00;;;;;;;10.39;68.33;100746.63;4194372;28;20090;-73
2023/01/07 08:47:30;;;;;;;1.13;0.90;;;;;;;10.42;67.75;100741.47;4196401;28;20094;-72
2023/01/07 08:49:34;;;;;;;1.52;0.80;;;;;;;10.44;68.15;100736.31;4198299;28;20048;-72
2023/01/07 08:51:37;;;;;;;1.20;0.80;;;;;;;10.44;67.91;100742.41;4195571;28;20036;-72
2023/01/07 08:53:40;;;;;;;2.10;0.77;;;;;;;10.51;67.29;100734.72;4195644;28;20032;-72
2023/01/07 08:55:43;;;;;;;1.45;1.00;;;;;;;10.50;67.23;100735.56;4196413;28;20559;-72
2023/01/07 08:57:46;;;;;;;0.80;0.60;;;;;;;10.53;66.81;100735.59;4196281;28;20044;-72
2023/01/07 08:59:49;;;;;;;0.98;0.82;;;;;;;10.57;66.44;100733.13;4196384;28;20040;-72
2023/01/07 09:01:52;;;;;;;3.22;0.80;;;;;;;10.55;66.02;100726.13;4196335;28;20040;-72
2023/01/07 09:03:55;;;;;;;0.82;0.82;;;;;;;10.50;66.03;100726.06;4177857;28;20554;-72
2023/01/07 09:05:59;;;;;;;0.75;0.65;;;;;;;10.49;65.98;100721.69;4196209;28;20053;-72
2023/01/07 09:08:02;;;;;;;2.13;0.90;;;;;;;10.54;66.34;100719.16;4196215;28;20482;-71
2023/01/07 09:10:07;;;;;;;1.40;0.80;;;;;;;10.60;65.93;100709.78;4196077;28;20044;-71
2023/01/07 09:12:10;;;;;;;1.13;0.80;;;;;;;10.63;66.12;100711.53;4179948;28;20043;-72
2023/01/07 09:14:13;;;;;;;0.85;0.82;;;;;;;10.58;64.90;100715.78;4177599;28;20037;-71
2023/01/07 09:16:16;;;;;;;2.38;0.88;;;;;;;10.55;65.55;100711.41;4178296;28;20060;-71
2023/01/07 09:18:19;;;;;;;1.63;0.63;;;;;;;10.54;65.08;100706.16;4191649;28;20036;-72
2023/01/07 09:20:22;;;;;;;2.10;1.02;;;;;;;10.61;65.10;100703.69;4194666;28;20486;-71
2023/01/07 09:22:26;;;;;;;0.77;0.77;;;;;;;10.61;65.87;100706.31;4196173;28;20028;-72
2023/01/07 09:24:29;;;;;;;0.82;0.77;;;;;;;10.67;66.02;100704.69;4194850;28;20051;-71
2023/01/07 09:26:32;;;;;;;1.58;0.70;;;;;;;10.72;65.48;100700.41;4196011;28;20048;-72
2023/01/07 09:28:35;;;;;;;3.22;0.77;;;;;;;10.79;64.66;100700.56;4195851;28;20041;-73
2023/01/07 09:30:38;;;;;;;2.00;0.77;;;;;;;10.82;64.64;100685.00;4196012;28;20048;-73
2023/01/07 09:32:42;;;;;;;0.95;0.77;;;;;;;10.88;63.58;100696.34;4195780;28;20370;-73
2023/01/07 09:34:45;;;;;;;0.75;0.73;;;;;;;10.83;63.68;100684.19;4195006;28;20051;-73
2023/01/07 09:36:48;;;;;;;0.50;0.50;;;;;;;10.83;63.92;100680.69;4195660;28;20169;-73
2023/01/07 09:38:52;;;;;;;2.10;0.90;;;;;;;10.94;63.55;100691.28;4195782;28;20041;-73
2023/01/07 09:40:55;;;;;;;0.68;0.65;;;;;;;11.00;63.15;100687.03;4195736;28;20407;-73
2023/01/07 09:43:06;;;;;;;2.83;0.70;;;;;;;10.96;63.89;100687.81;4195400;28;20036;-72
2023/01/07 09:45:16;;;;;;;1.45;0.80;;;;;;;11.04;63.22;100687.06;4192847;28;20933;-73
2023/01/07 09:47:23;;;;;;;1.88;0.88;;;;;;;11.02;63.30;100681.84;4192881;28;20048;-73